Aviation Digital Data Service (ADDS)

Output produced by METARs form (0601 UTC 27 September 2020)
found at http://aviationweather.gov/metar/data/
 
METAR text: ETNT 270520Z AUTO 08008KT 7000 // ////// 13/09 Q1000 ///
Conditions at: ETNT (WITTMUNDHAVEN(GA, DE) observed 0520 UTC 27 September 2020
Temperature: 13.0°C (55°F)
Dewpoint: 9.0°C (48°F) [RH = 77%]
Pressure (altimeter): 29.53 inches Hg (1000.0 mb)
Winds: from the E (80 degrees) at 9 MPH (8 knots; 4.1 m/s)
Visibility: 4 miles ( 7 km)
Ceiling: unknown
Clouds: missing
Weather: no significant weather observed at this time